地図

経路データ

SID SEASON NUMBER BASIN SUBBASIN NAME ISO_TIME NATURE LAT LON WMO_WIND WMO_PRES WMO_AGENCY TRACK_TYPE DIST2LAND LANDFALL IFLAG USA_AGENCY USA_ATCF_ID USA_LAT USA_LON USA_RECORD USA_STATUS USA_WIND USA_PRES USA_SSHS USA_R34_NE USA_R34_SE USA_R34_SW USA_R34_NW USA_R50_NE USA_R50_SE USA_R50_SW USA_R50_NW USA_R64_NE USA_R64_SE USA_R64_SW USA_R64_NW USA_POCI USA_ROCI USA_RMW USA_EYE TOKYO_LAT TOKYO_LON TOKYO_GRADE TOKYO_WIND TOKYO_PRES TOKYO_R50_DIR TOKYO_R50_LONG TOKYO_R50_SHORT TOKYO_R30_DIR TOKYO_R30_LONG TOKYO_R30_SHORT TOKYO_LAND CMA_LAT CMA_LON CMA_CAT CMA_WIND CMA_PRES HKO_LAT HKO_LON HKO_CAT HKO_WIND HKO_PRES NEWDELHI_LAT NEWDELHI_LON NEWDELHI_GRADE NEWDELHI_WIND NEWDELHI_PRES NEWDELHI_CI NEWDELHI_DP NEWDELHI_POCI REUNION_LAT REUNION_LON REUNION_TYPE REUNION_WIND REUNION_PRES REUNION_TNUM REUNION_CI REUNION_RMW REUNION_R34_NE REUNION_R34_SE REUNION_R34_SW REUNION_R34_NW REUNION_R50_NE REUNION_R50_SE REUNION_R50_SW REUNION_R50_NW REUNION_R64_NE REUNION_R64_SE REUNION_R64_SW REUNION_R64_NW BOM_LAT BOM_LON BOM_TYPE BOM_WIND BOM_PRES BOM_TNUM BOM_CI BOM_RMW BOM_R34_NE BOM_R34_SE BOM_R34_SW BOM_R34_NW BOM_R50_NE BOM_R50_SE BOM_R50_SW BOM_R50_NW BOM_R64_NE BOM_R64_SE BOM_R64_SW BOM_R64_NW BOM_ROCI BOM_POCI BOM_EYE BOM_POS_METHOD BOM_PRES_METHOD NADI_LAT NADI_LON NADI_CAT NADI_WIND NADI_PRES WELLINGTON_LAT WELLINGTON_LON WELLINGTON_WIND WELLINGTON_PRES DS824_LAT DS824_LON DS824_STAGE DS824_WIND DS824_PRES TD9636_LAT TD9636_LON TD9636_STAGE TD9636_WIND TD9636_PRES TD9635_LAT TD9635_LON TD9635_WIND TD9635_PRES TD9635_ROCI NEUMANN_LAT NEUMANN_LON NEUMANN_CLASS NEUMANN_WIND NEUMANN_PRES MLC_LAT MLC_LON MLC_CLASS MLC_WIND MLC_PRES USA_GUST BOM_GUST BOM_GUST_PER REUNION_GUST REUNION_GUST_PER USA_SEAHGT USA_SEARAD_NE USA_SEARAD_SE USA_SEARAD_SW USA_SEARAD_NW STORM_SPEED STORM_DIR
1984227N21135 1984 60 WP MM NOT_NAMED 1984-08-14 00:00:00 TS 20.5000 135.000 main 1249 1199 __O___________ -1 20.5000 135.000 0 19 1001 11 12
1984227N21135 1984 60 WP MM NOT_NAMED 1984-08-14 03:00:00 TS 21.0127 135.110 main 1199 1151 __P___________ -1 21.0127 135.110 0 19 1000 10 11
1984227N21135 1984 60 WP MM NOT_NAMED 1984-08-14 06:00:00 TS 21.5000 135.200 main 1151 1110 __O___________ -1 21.5000 135.200 0 19 1000 9 7
1984227N21135 1984 60 WP MM NOT_NAMED 1984-08-14 09:00:00 TS 21.9370 135.220 main 1110 1061 __P___________ -1 21.9370 135.220 0 21 1000 8 347
1984227N21135 1984 60 WP MM NOT_NAMED 1984-08-14 12:00:00 TS 22.3000 135.000 main 1061 1007 __O___________ -1 22.3000 135.000 1 23 1000 10 311
1984227N21135 1984 60 WP MM NOT_NAMED 1984-08-14 15:00:00 TS 22.5879 134.398 main 1007 959 __P___________ -1 22.5879 134.398 1 23 999 14 291
1984227N21135 1984 60 WP MM NOT_NAMED 1984-08-14 18:00:00 TS 22.8000 133.600 main 959 930 __O___________ -1 22.8000 133.600 1 23 998 15 284
1984227N21135 1984 60 WP MM NOT_NAMED 1984-08-14 21:00:00 TS 22.9501 132.827 main 917 893 __P___________ -1 22.9501 132.827 1 26 997 14 282
1984227N21135 1984 60 WP MM NOT_NAMED 1984-08-15 00:00:00 TS 23.1000 132.100 main 893 864 __O___________ -1 23.1000 132.100 1 29 996 13 288
1984227N21135 1984 60 WP MM NOT_NAMED 1984-08-15 03:00:00 TS 23.3419 131.527 main 863 826 __P___________ -1 23.3419 131.527 1 29 996 11 296
1984227N21135 1984 60 WP MM NOT_NAMED 1984-08-15 06:00:00 TS 23.6000 131.000 main 826 804 __O___________ -1 23.6000 131.000 1 29 996 11 296
1984227N21135 1984 60 WP MM NOT_NAMED 1984-08-15 09:00:00 TS 23.8371 130.430 main 804 784 __P___________ -1 23.8371 130.430 1 29 996 12 290
1984227N21135 1984 60 WP MM NOT_NAMED 1984-08-15 12:00:00 TS 24.0000 129.800 main 786 724 __O___________ -1 24.0000 129.800 1 29 996 13 281
1984227N21135 1984 60 WP MM NOT_NAMED 1984-08-15 15:00:00 TS 24.0903 129.043 main 714 646 __P___________ -1 24.0903 129.043 1 29 995 14 270
1984227N21135 1984 60 WP MM NOT_NAMED 1984-08-15 18:00:00 TS 24.0000 128.300 main 646 595 __O___________ -1 24.0000 128.300 1 29 995 14 252
1984227N21135 1984 60 WP MM NOT_NAMED 1984-08-15 21:00:00 TS 23.6600 127.621 main 585 554 __P___________ -1 23.6600 127.621 1 29 994 13 232
1984227N21135 1984 60 WP MM NOT_NAMED 1984-08-16 00:00:00 TS 23.2000 127.200 main 557 551 __O___________ -1 23.2000 127.200 1 29 994 10 206
1984227N21135 1984 60 WP MM NOT_NAMED 1984-08-16 03:00:00 TS 22.7770 127.151 main 571 571 __P___________ -1 22.7770 127.151 1 29 993 8 167
1984227N21135 1984 60 WP MM NOT_NAMED 1984-08-16 06:00:00 TS 22.4000 127.400 main 607 607 __O___________ -1 22.4000 127.400 1 29 992 9 138
1984227N21135 1984 60 WP MM NOT_NAMED 1984-08-16 09:00:00 TS 22.1350 127.775 main 659 659 __P___________ -1 22.1350 127.775 1 29 991 10 121
1984227N21135 1984 60 WP MM NOT_NAMED 1984-08-16 12:00:00 TS 21.9000 128.300 main 715 715 __O___________ -1 21.9000 128.300 1 29 990 12 118
1984227N21135 1984 60 WP MM NOT_NAMED 1984-08-16 15:00:00 TS 21.5852 128.893 main 776 776 __P___________ -1 21.5852 128.893 1 29 990 13 118
1984227N21135 1984 60 WP MM NOT_NAMED 1984-08-16 18:00:00 TS 21.3000 129.500 main 819 819 __O___________ -1 21.3000 129.500 1 29 990 12 114
1984227N21135 1984 60 WP MM NOT_NAMED 1984-08-16 21:00:00 TS 21.1175 130.027 main 860 860 __P___________ -1 21.1175 130.027 1 29 990 10 108
1984227N21135 1984 60 WP MM NOT_NAMED 1984-08-17 00:00:00 TS 21.0000 130.500 main 906 __O___________ -1 21.0000 130.500 1 29 990 9 105

デジタル台風データ・検索

IBTrACS Databaseについて

本データベースは、米国NOAAが公開する1842年以降の世界の熱帯低気圧のベストトラックデータアーカイブInternational Best Track Archive for Climate Stewardship (IBTrACS)を、ウェブで閲覧しやすい形式に変換したものです。

最終更新日:2021-10-25